createdAt,value
2022-09-14T00:01:47.862Z,11.05
2022-09-14T00:04:08.256Z,9.30
2022-09-14T00:06:15.657Z,9.85
2022-09-14T00:08:19.074Z,9.57
2022-09-14T00:10:21.803Z,9.35
2022-09-14T00:12:27.802Z,8.75
2022-09-14T00:14:32.874Z,9.18
2022-09-14T00:16:42.004Z,11.43
2022-09-14T00:18:45.496Z,10.45
2022-09-14T00:20:48.664Z,10.15
2022-09-14T00:22:51.224Z,10.10
2022-09-14T00:24:53.920Z,9.75
2022-09-14T00:27:26.390Z,10.75
2022-09-14T00:29:31.605Z,9.60
2022-09-14T00:31:38.069Z,11.68
2022-09-14T00:33:48.124Z,10.18
2022-09-14T00:35:51.044Z,8.43
2022-09-14T00:37:53.805Z,9.50
2022-09-14T00:39:59.470Z,9.63
2022-09-14T00:42:06.249Z,10.43
2022-09-14T00:44:11.170Z,8.55
2022-09-14T00:46:18.947Z,9.32
2022-09-14T00:48:27.274Z,10.07
2022-09-14T00:50:29.874Z,10.38
2022-09-14T00:52:38.686Z,9.15
2022-09-14T00:54:49.796Z,12.07
2022-09-14T00:56:57.450Z,9.98
2022-09-14T00:59:07.282Z,9.07
2022-09-14T01:01:12.550Z,9.07
2022-09-14T01:03:16.995Z,9.23
2022-09-14T01:11:35.363Z,10.98
2022-09-14T01:14:04.176Z,10.63
2022-09-14T01:16:18.851Z,10.23
2022-09-14T01:18:39.913Z,10.40
2022-09-14T01:21:04.096Z,9.07
2022-09-14T01:23:43.755Z,9.73
2022-09-14T01:26:22.759Z,10.30
2022-09-14T01:28:50.955Z,10.00
2022-09-14T01:31:01.963Z,10.55
2022-09-14T01:33:22.763Z,9.43
2022-09-14T01:35:40.832Z,10.27
2022-09-14T01:38:05.734Z,10.77
2022-09-14T01:40:31.430Z,11.27
2022-09-14T01:42:42.847Z,10.02
2022-09-14T01:44:53.350Z,12.18
2022-09-14T01:47:13.637Z,11.52
2022-09-14T01:49:34.584Z,12.32
2022-09-14T01:52:13.363Z,11.30
2022-09-14T01:54:34.175Z,13.85
2022-09-14T01:56:54.146Z,11.50
2022-09-14T01:59:19.931Z,10.40
2022-09-14T02:01:33.335Z,11.55
2022-09-14T02:03:53.266Z,11.75
2022-09-14T02:06:42.924Z,12.93
2022-09-14T02:08:51.980Z,13.25
2022-09-14T02:11:00.012Z,11.25
2022-09-14T02:13:05.334Z,13.57
2022-09-14T02:15:16.591Z,11.85
2022-09-14T02:17:22.977Z,14.48
2022-09-14T02:19:39.101Z,11.30
2022-09-14T02:21:45.127Z,15.60
2022-09-14T02:23:56.822Z,13.27
2022-09-14T02:26:39.968Z,13.30
2022-09-14T02:28:58.358Z,12.80
2022-09-14T02:31:26.511Z,11.20
2022-09-14T02:37:04.574Z,13.20
2022-09-14T02:45:47.675Z,11.98
2022-09-14T02:48:01.824Z,12.65
2022-09-14T02:50:17.319Z,12.38
2022-09-14T02:52:42.087Z,11.63
2022-09-14T02:57:01.910Z,11.13
2022-09-14T02:59:05.293Z,12.57
2022-09-14T03:01:16.291Z,11.73
2022-09-14T03:03:21.688Z,11.38
2022-09-14T03:05:27.485Z,12.25
2022-09-14T03:21:28.835Z,12.80
2022-09-14T03:48:48.237Z,11.88
2022-09-14T03:52:13.067Z,11.25
2022-09-14T05:20:08.232Z,15.02
2022-09-14T05:22:14.039Z,12.48
2022-09-14T05:33:41.119Z,14.80
2022-09-14T05:36:01.754Z,12.68
2022-09-14T05:38:08.490Z,13.98
2022-09-14T05:42:50.433Z,12.68
2022-09-14T05:47:06.864Z,18.00
2022-09-14T05:49:27.256Z,16.15
2022-09-14T05:51:39.550Z,14.90
2022-09-14T05:55:50.306Z,15.25
2022-09-14T05:57:55.848Z,15.95
2022-09-14T06:00:12.984Z,15.75
2022-09-14T06:02:31.874Z,15.50
2022-09-14T06:04:39.945Z,12.93
2022-09-14T06:09:16.713Z,15.20
2022-09-14T06:11:29.931Z,12.50
2022-09-14T06:13:33.016Z,15.38
2022-09-14T06:18:14.956Z,13.90
2022-09-14T06:20:18.661Z,15.00
2022-09-14T06:22:24.547Z,12.93
2022-09-14T06:24:27.470Z,15.27
2022-09-14T06:26:33.970Z,14.13
2022-09-14T06:28:37.690Z,11.93
2022-09-14T06:30:44.325Z,12.68
2022-09-14T06:32:47.160Z,13.75
2022-09-14T06:34:55.622Z,11.80
2022-09-14T06:36:58.152Z,13.48
2022-09-14T06:39:01.458Z,13.40
2022-09-14T06:41:17.781Z,13.80
2022-09-14T06:43:22.947Z,13.27
2022-09-14T06:45:27.067Z,15.07
2022-09-14T06:47:36.645Z,13.23
2022-09-14T06:49:39.349Z,14.10
2022-09-14T06:51:45.379Z,13.93
2022-09-14T06:53:49.782Z,12.82
2022-09-14T06:55:53.940Z,15.60
2022-09-14T06:57:59.613Z,14.10
2022-09-14T07:05:02.220Z,13.90
2022-09-14T07:07:06.838Z,14.13
2022-09-14T07:09:09.412Z,15.43
2022-09-14T07:11:14.550Z,14.48
2022-09-14T07:13:17.273Z,14.57
2022-09-14T07:15:21.687Z,16.17
2022-09-14T07:17:24.171Z,13.57
2022-09-14T07:19:26.543Z,13.55
2022-09-14T07:21:30.328Z,15.30
2022-09-14T07:23:33.583Z,14.98
2022-09-14T07:25:38.966Z,12.65
2022-09-14T07:27:44.320Z,14.27
2022-09-14T07:29:47.782Z,12.52
2022-09-14T07:31:53.058Z,12.98
2022-09-14T07:33:58.059Z,14.18
2022-09-14T07:36:09.179Z,11.95
2022-09-14T07:38:11.651Z,11.70
2022-09-14T07:40:13.704Z,14.50
2022-09-14T07:42:16.070Z,12.13
2022-09-14T07:44:19.431Z,13.68
2022-09-14T07:46:22.648Z,13.95
2022-09-14T07:48:24.778Z,13.10
2022-09-14T07:50:30.323Z,13.35
2022-09-14T07:52:37.993Z,11.63
2022-09-14T07:54:42.023Z,12.07
2022-09-14T07:56:45.824Z,10.48
2022-09-14T07:59:03.345Z,13.57
2022-09-14T08:01:19.738Z,11.88
2022-09-14T08:03:23.350Z,11.45
2022-09-14T08:05:29.600Z,11.07
2022-09-14T08:07:31.999Z,10.80
2022-09-14T08:09:35.150Z,12.18
2022-09-14T08:11:38.663Z,9.93
2022-09-14T08:13:51.215Z,9.40
2022-09-14T08:15:55.270Z,9.52
2022-09-14T08:17:58.451Z,9.95
2022-09-14T08:20:01.067Z,7.10
2022-09-14T08:22:04.956Z,9.48
2022-09-14T08:24:14.157Z,9.05
2022-09-14T08:26:23.330Z,7.53
2022-09-14T08:28:28.683Z,7.85
2022-09-14T08:30:31.222Z,8.25
2022-09-14T08:32:33.865Z,10.52
2022-09-14T08:34:37.156Z,8.07
2022-09-14T08:37:04.847Z,9.82
2022-09-14T08:39:10.578Z,7.88
2022-09-14T08:41:30.255Z,7.80
2022-09-14T08:43:33.225Z,8.93
2022-09-14T08:45:35.768Z,8.98
2022-09-14T08:47:39.070Z,11.52
2022-09-14T08:50:18.675Z,7.78
2022-09-14T08:52:43.890Z,11.57
2022-09-14T08:54:50.448Z,7.53
2022-09-14T08:57:18.987Z,11.52
2022-09-14T08:59:58.523Z,7.63
2022-09-14T09:02:28.240Z,7.95
2022-09-14T09:04:42.962Z,8.35
2022-09-14T09:07:26.240Z,6.50
2022-09-14T09:09:48.378Z,8.60
2022-09-14T09:11:53.971Z,8.20
2022-09-14T09:13:58.219Z,8.50
2022-09-14T09:16:05.356Z,8.90
2022-09-14T09:18:13.644Z,8.40
2022-09-14T09:20:23.352Z,7.05
2022-09-14T09:22:31.392Z,8.27
2022-09-14T09:24:37.297Z,7.35
2022-09-14T09:26:39.544Z,7.18
2022-09-14T09:28:48.649Z,7.40
2022-09-14T09:30:59.064Z,6.95
2022-09-14T09:33:43.857Z,7.35
2022-09-14T09:35:55.178Z,8.27
2022-09-14T09:38:14.589Z,10.40
2022-09-14T09:45:08.557Z,8.50
2022-09-14T09:47:10.696Z,8.60
2022-09-14T09:49:22.494Z,8.73
2022-09-14T09:51:27.008Z,9.18
2022-09-14T09:53:29.797Z,8.63
2022-09-14T09:55:38.189Z,8.68
2022-09-14T09:57:40.402Z,7.57
2022-09-14T09:59:43.388Z,8.45
2022-09-14T10:01:46.095Z,8.63
2022-09-14T10:04:21.070Z,8.63
2022-09-14T10:06:23.467Z,8.73
2022-09-14T10:08:29.524Z,8.57
2022-09-14T10:10:34.759Z,8.85
2022-09-14T10:12:40.417Z,8.88
2022-09-14T10:14:43.255Z,8.80
2022-09-14T10:16:51.010Z,7.10
2022-09-14T10:18:54.021Z,7.85
2022-09-14T10:20:59.520Z,9.20
2022-09-14T10:23:20.241Z,7.40
2022-09-14T10:25:26.777Z,7.78
2022-09-14T10:27:38.698Z,7.15
2022-09-14T10:29:55.454Z,7.50
2022-09-14T10:32:21.932Z,6.78
2022-09-14T10:34:25.145Z,8.98
2022-09-14T10:36:33.762Z,8.15
2022-09-14T10:38:48.534Z,8.27
2022-09-14T10:41:10.451Z,5.53
2022-09-14T10:43:46.403Z,7.82
2022-09-14T10:45:59.426Z,7.60
2022-09-14T10:48:40.229Z,7.75
2022-09-14T10:51:01.879Z,6.60
2022-09-14T10:53:44.645Z,7.82
2022-09-14T10:56:20.284Z,6.75
2022-09-14T10:59:03.497Z,6.45
2022-09-14T11:01:46.412Z,6.63
2022-09-14T11:04:47.671Z,7.05
2022-09-14T11:08:04.397Z,7.00
2022-09-14T11:10:56.008Z,8.68
2022-09-14T11:14:10.535Z,9.57
2022-09-14T11:20:42.589Z,14.50
2022-09-14T11:23:03.675Z,8.27
2022-09-14T11:25:21.596Z,8.40
2022-09-14T11:27:45.473Z,8.23
2022-09-14T11:30:02.047Z,8.45
2022-09-14T11:32:21.327Z,6.75
2022-09-14T11:34:44.203Z,9.05
2022-09-14T11:36:55.624Z,7.03
2022-09-14T11:39:19.943Z,6.30
2022-09-14T11:41:41.796Z,6.53
2022-09-14T11:44:16.422Z,7.18
2022-09-14T11:46:37.237Z,8.13
2022-09-14T11:48:54.058Z,6.22
2022-09-14T11:51:09.697Z,8.65
2022-09-14T11:53:18.575Z,7.57
2022-09-14T11:55:21.763Z,6.32
2022-09-14T11:57:33.749Z,6.82
2022-09-14T11:59:44.384Z,6.90
2022-09-14T12:01:49.790Z,7.05
2022-09-14T12:04:15.996Z,8.38
2022-09-14T12:06:30.927Z,7.72
2022-09-14T12:08:33.421Z,7.43
2022-09-14T12:11:08.509Z,8.95
2022-09-14T12:13:14.873Z,8.30
2022-09-14T12:15:25.042Z,7.22
2022-09-14T17:04:22.575Z,10.60
2022-09-14T17:06:30.041Z,10.68
2022-09-14T17:19:56.605Z,10.82
2022-09-14T17:22:08.140Z,8.68
2022-09-14T17:24:29.345Z,8.48
2022-09-14T17:29:24.322Z,11.60
2022-09-14T17:31:44.817Z,11.15
2022-09-14T17:33:57.124Z,10.73
2022-09-14T17:36:11.108Z,10.27
2022-09-14T17:38:19.994Z,10.23
2022-09-14T17:40:25.674Z,8.88
2022-09-14T17:42:45.174Z,12.88
2022-09-14T17:45:05.918Z,12.30
2022-09-14T17:47:31.929Z,14.07
2022-09-14T17:49:40.179Z,12.38
2022-09-14T17:51:45.128Z,10.38
2022-09-14T17:59:39.611Z,11.15
2022-09-14T18:01:45.185Z,13.02
2022-09-14T18:03:57.464Z,13.23
2022-09-14T18:06:00.602Z,15.93
2022-09-14T18:08:05.947Z,14.93
2022-09-14T18:17:43.961Z,14.20
2022-09-14T18:19:54.480Z,15.10
2022-09-14T19:23:43.824Z,12.33
2022-09-14T19:25:49.156Z,12.65
2022-09-14T19:27:52.023Z,11.80
2022-09-14T19:29:56.479Z,11.77
2022-09-14T19:32:01.315Z,13.15
2022-09-14T19:34:22.515Z,12.85
2022-09-14T19:36:30.539Z,12.20
2022-09-14T19:38:49.687Z,10.80
2022-09-14T19:46:10.438Z,10.15
2022-09-14T19:48:29.593Z,12.00
2022-09-14T19:50:40.544Z,10.32
2022-09-14T19:53:26.629Z,11.90
2022-09-14T19:55:45.957Z,11.18
2022-09-14T19:58:00.671Z,11.18
2022-09-14T20:00:13.229Z,9.90
2022-09-14T20:09:49.623Z,11.23
2022-09-14T20:12:02.469Z,10.75
2022-09-14T20:14:18.909Z,11.50
2022-09-14T20:16:38.417Z,11.60
2022-09-14T20:19:11.027Z,10.38
2022-09-14T20:21:42.573Z,11.57
2022-09-14T20:24:23.428Z,12.07
2022-09-14T20:26:45.521Z,11.73
2022-09-14T20:29:19.655Z,9.90
2022-09-14T20:35:07.254Z,11.38
2022-09-14T20:40:25.043Z,10.70
2022-09-14T20:45:38.305Z,10.25
2022-09-14T20:47:44.216Z,10.02
2022-09-14T20:49:48.152Z,10.90
2022-09-14T20:52:26.657Z,12.45
2022-09-14T20:56:44.006Z,11.32
2022-09-14T20:58:51.726Z,11.45
2022-09-14T21:01:12.316Z,12.40
2022-09-14T21:03:16.074Z,12.32
2022-09-14T21:05:19.746Z,11.55
2022-09-14T21:07:22.389Z,12.85
2022-09-14T21:09:28.134Z,12.00
2022-09-14T21:11:31.064Z,12.43
2022-09-14T21:13:34.938Z,12.77
2022-09-14T21:15:37.417Z,11.05
2022-09-14T21:17:41.327Z,12.25
2022-09-14T21:19:43.629Z,12.43
2022-09-14T21:21:47.609Z,13.85
2022-09-14T21:24:16.558Z,12.45
2022-09-14T21:26:19.995Z,11.90
2022-09-14T21:28:22.393Z,13.23
2022-09-14T21:30:26.800Z,12.25
2022-09-14T21:39:21.083Z,12.90
2022-09-14T21:41:27.165Z,13.48
2022-09-14T21:43:29.590Z,13.77
2022-09-14T21:45:31.787Z,12.38
2022-09-14T21:47:34.530Z,12.93
2022-09-14T21:49:36.744Z,13.35
2022-09-14T21:51:39.026Z,13.77
2022-09-14T21:53:45.766Z,12.70
2022-09-14T21:55:47.993Z,13.73
2022-09-14T21:57:50.243Z,15.00
2022-09-14T21:59:52.916Z,12.20
2022-09-14T22:01:55.337Z,12.75
2022-09-14T22:03:58.746Z,12.60
2022-09-14T22:06:11.807Z,12.10
2022-09-14T22:08:14.211Z,13.32
2022-09-14T22:10:16.431Z,12.52
2022-09-14T22:12:19.885Z,12.32
2022-09-14T22:14:27.375Z,14.48
2022-09-14T22:16:32.719Z,14.63
2022-09-14T22:18:38.148Z,18.05
2022-09-14T22:20:41.519Z,15.30
2022-09-14T22:22:44.360Z,15.75
2022-09-14T22:24:47.038Z,15.63
2022-09-14T22:26:49.532Z,14.27
2022-09-14T22:28:53.274Z,14.80
2022-09-14T22:30:55.927Z,13.10
2022-09-14T22:32:58.615Z,14.07
2022-09-14T22:35:00.855Z,13.75
2022-09-14T22:37:03.607Z,12.75
2022-09-14T22:39:06.574Z,13.30
2022-09-14T22:41:12.997Z,13.50
2022-09-14T22:43:18.592Z,13.80
2022-09-14T22:45:21.278Z,13.95
2022-09-14T22:47:26.558Z,13.20
2022-09-14T22:49:31.360Z,13.25
2022-09-14T22:51:33.702Z,13.45
2022-09-14T22:53:36.546Z,12.48
2022-09-14T22:55:43.690Z,14.95
2022-09-14T22:57:45.912Z,12.65
2022-09-14T22:59:48.071Z,13.57
2022-09-14T23:01:50.756Z,11.52
2022-09-14T23:04:01.937Z,13.20
2022-09-14T23:06:05.281Z,13.20
2022-09-14T23:08:08.655Z,11.93
2022-09-14T23:10:10.910Z,10.50
2022-09-14T23:12:13.105Z,9.30
2022-09-14T23:14:16.834Z,9.50
2022-09-14T23:16:23.452Z,10.35
2022-09-14T23:18:25.578Z,9.85
2022-09-14T23:20:27.950Z,9.43
2022-09-14T23:22:30.063Z,8.98
2022-09-14T23:24:32.129Z,8.57
2022-09-14T23:26:34.524Z,8.38
2022-09-14T23:28:38.891Z,8.18
2022-09-14T23:30:40.988Z,9.52
2022-09-14T23:32:43.292Z,8.75
2022-09-14T23:36:47.454Z,8.77
2022-09-14T23:38:50.865Z,8.05
2022-09-14T23:40:53.168Z,8.18
2022-09-14T23:42:55.180Z,10.45
2022-09-14T23:44:57.912Z,9.73
2022-09-14T23:47:00.167Z,9.52
2022-09-14T23:49:02.207Z,9.93
2022-09-14T23:51:07.753Z,9.15
2022-09-14T23:53:09.935Z,9.40
2022-09-14T23:55:12.040Z,9.82
2022-09-14T23:57:14.462Z,8.57
2022-09-14T23:59:16.638Z,9.30
